Dati meteorologici dell'aviazione (METAR)     LEVC Valencia Airport



Temperatura
12°C Temperatura
2°C Punto di rugiada
51% Umidità



Vento
14 KM/H
9 MPH
4 M/S
8 KTS



300°
ONO
Condizioni attuali

Chiaro Chiaro
Pressione 1024.92 (hPa) - 30.27 (inHg)
Visibilità 6.2 (miglio) - 10 (km)
Aeroporto
Aeroporto-code LEVC

Posizione: Valencia Airport
Distanza: 18 (km)

Metar:
LEVC 172100Z 30008KT CAVOK 12/02 Q1025 NOSIG

Ore: 17-01-2021 22:00 CET

Follow @meteolliria2013